createdAt,value
2019-05-21T00:00:25.778Z,8.17
2019-05-21T00:02:56.249Z,7.53
2019-05-21T00:05:26.717Z,8.60
2019-05-21T00:07:57.122Z,7.30
2019-05-21T00:10:27.552Z,9.07
2019-05-21T00:12:57.961Z,11.07
2019-05-21T00:15:28.479Z,11.50
2019-05-21T00:17:58.884Z,11.97
2019-05-21T00:20:29.333Z,10.03
2019-05-21T00:22:59.818Z,10.63
2019-05-21T00:25:30.252Z,9.20
2019-05-21T00:28:23.366Z,10.17
2019-05-21T00:31:47.813Z,9.83
2019-05-21T00:35:12.029Z,9.80
2019-05-21T00:38:37.054Z,9.73
2019-05-21T00:42:04.542Z,10.07
2019-05-21T00:44:39.621Z,9.10
2019-05-21T00:47:11.917Z,8.87
2019-05-21T00:49:42.592Z,8.97
2019-05-21T00:52:13.067Z,9.20
2019-05-21T00:54:43.581Z,9.40
2019-05-21T00:57:13.996Z,9.30
2019-05-21T00:59:44.492Z,9.83
2019-05-21T01:02:14.885Z,9.93
2019-05-21T01:04:59.573Z,9.57
2019-05-21T01:07:17.485Z,9.80
2019-05-21T01:09:47.916Z,10.33
2019-05-21T01:12:18.313Z,11.00
2019-05-21T01:14:48.760Z,10.10
2019-05-21T01:17:19.223Z,9.20
2019-05-21T01:19:49.656Z,10.13
2019-05-21T01:22:20.088Z,9.67
2019-05-21T01:24:50.532Z,9.43
2019-05-21T01:27:20.996Z,9.37
2019-05-21T01:29:51.604Z,9.77
2019-05-21T01:32:22.003Z,10.17
2019-05-21T01:34:52.510Z,9.30
2019-05-21T01:37:23.190Z,10.17
2019-05-21T01:39:53.642Z,10.40
2019-05-21T01:42:25.114Z,11.03
2019-05-21T01:44:55.562Z,11.37
2019-05-21T01:47:26.090Z,10.53
2019-05-21T01:49:56.610Z,10.97
2019-05-21T01:52:27.019Z,11.27
2019-05-21T01:54:57.454Z,11.60
2019-05-21T01:57:27.861Z,11.23
2019-05-21T01:59:58.299Z,12.17
2019-05-21T02:02:28.690Z,11.93
2019-05-21T02:04:59.127Z,12.27
2019-05-21T02:07:29.531Z,11.77
2019-05-21T02:09:59.970Z,12.33
2019-05-21T02:12:30.372Z,11.83
2019-05-21T02:15:00.820Z,13.00
2019-05-21T02:17:31.220Z,12.17
2019-05-21T02:20:01.660Z,11.60
2019-05-21T02:22:32.095Z,12.20
2019-05-21T02:25:02.558Z,11.00
2019-05-21T02:27:32.957Z,12.23
2019-05-21T02:30:04.098Z,11.40
2019-05-21T02:32:34.911Z,11.77
2019-05-21T02:35:06.305Z,11.53
2019-05-21T02:37:41.711Z,12.33
2019-05-21T02:40:13.584Z,11.50
2019-05-21T02:42:44.305Z,11.50
2019-05-21T02:45:15.552Z,12.37
2019-05-21T02:47:45.949Z,12.70
2019-05-21T02:50:17.636Z,14.27
2019-05-21T02:52:48.046Z,12.13
2019-05-21T02:55:20.091Z,12.17
2019-05-21T02:57:50.488Z,11.10
2019-05-21T03:00:28.699Z,12.00
2019-05-21T03:03:00.820Z,12.90
2019-05-21T03:05:31.329Z,12.57
2019-05-21T03:08:01.768Z,12.30
2019-05-21T03:10:32.242Z,11.63
2019-05-21T03:13:02.645Z,12.17
2019-05-21T03:15:33.152Z,13.27
2019-05-21T03:18:03.537Z,13.53
2019-05-21T03:20:33.972Z,13.10
2019-05-21T03:23:04.379Z,13.27
2019-05-21T03:25:34.824Z,13.10
2019-05-21T03:28:05.373Z,13.10
2019-05-21T03:30:35.832Z,12.60
2019-05-21T03:33:06.367Z,12.33
2019-05-21T03:35:36.864Z,12.67
2019-05-21T03:38:07.288Z,12.47
2019-05-21T03:40:37.782Z,11.87
2019-05-21T03:43:08.189Z,12.47
2019-05-21T03:45:38.707Z,13.17
2019-05-21T03:48:09.142Z,13.67
2019-05-21T03:50:40.462Z,13.10
2019-05-21T03:53:10.962Z,11.83
2019-05-21T03:55:41.409Z,12.67
2019-05-21T03:58:11.914Z,12.13
2019-05-21T04:00:42.312Z,12.27
2019-05-21T04:03:12.754Z,12.10
2019-05-21T04:05:43.151Z,12.27
2019-05-21T04:08:13.671Z,12.70
2019-05-21T04:10:44.151Z,13.10
2019-05-21T04:13:16.411Z,13.17
2019-05-21T04:15:57.455Z,12.93
2019-05-21T04:18:29.686Z,13.27
2019-05-21T04:21:00.145Z,12.53
2019-05-21T04:23:30.644Z,12.77
2019-05-21T04:26:02.104Z,14.83
2019-05-21T04:28:32.621Z,14.87
2019-05-21T04:31:03.022Z,15.27
2019-05-21T04:33:33.472Z,15.10
2019-05-21T04:36:03.953Z,14.73
2019-05-21T04:38:34.392Z,14.20
2019-05-21T04:41:04.782Z,14.50
2019-05-21T04:43:35.230Z,18.47
2019-05-21T04:46:05.701Z,21.03
2019-05-21T04:48:36.150Z,22.63
2019-05-21T04:51:06.549Z,20.93
2019-05-21T04:53:36.997Z,21.10
2019-05-21T04:56:07.405Z,22.57
2019-05-21T04:58:38.234Z,19.80
2019-05-21T05:01:08.754Z,17.70
2019-05-21T05:03:39.193Z,17.70
2019-05-21T05:06:09.664Z,18.07
2019-05-21T05:08:40.186Z,19.73
2019-05-21T05:11:10.591Z,18.87
2019-05-21T05:13:41.040Z,21.63
2019-05-21T05:16:11.717Z,21.40
2019-05-21T05:18:42.222Z,22.20
2019-05-21T05:21:12.627Z,25.50
2019-05-21T05:23:43.089Z,26.33
2019-05-21T05:26:13.744Z,27.77
2019-05-21T05:28:44.256Z,30.20
2019-05-21T05:31:15.396Z,28.33
2019-05-21T05:33:47.086Z,29.27
2019-05-21T05:36:17.491Z,27.93
2019-05-21T05:38:47.932Z,30.57
2019-05-21T05:41:18.340Z,31.77
2019-05-21T05:43:48.855Z,31.93
2019-05-21T05:46:19.331Z,35.30
2019-05-21T05:48:51.414Z,38.07
2019-05-21T05:51:22.054Z,37.67
2019-05-21T05:53:58.482Z,38.40
2019-05-21T05:56:29.586Z,39.80
2019-05-21T05:59:00.141Z,42.57
2019-05-21T06:01:32.180Z,40.30
2019-05-21T06:04:02.613Z,42.30
2019-05-21T06:06:33.012Z,41.53
2019-05-21T06:09:05.486Z,39.77
2019-05-21T06:11:35.968Z,40.83
2019-05-21T06:14:06.482Z,41.43
2019-05-21T06:16:36.895Z,41.60
2019-05-21T06:19:07.362Z,41.10
2019-05-21T06:21:37.756Z,39.93
2019-05-21T06:24:08.198Z,40.53
2019-05-21T06:26:38.636Z,38.50
2019-05-21T06:29:09.080Z,38.77
2019-05-21T06:31:39.562Z,36.80
2019-05-21T06:34:10.003Z,38.63
2019-05-21T06:36:40.398Z,38.77
2019-05-21T06:39:10.981Z,38.67
2019-05-21T06:41:41.439Z,41.70
2019-05-21T06:44:11.877Z,44.37
2019-05-21T06:46:42.268Z,44.07
2019-05-21T06:49:12.716Z,42.77
2019-05-21T06:51:43.113Z,43.23
2019-05-21T06:54:13.560Z,43.40
2019-05-21T06:56:44.024Z,43.20
2019-05-21T06:59:14.468Z,45.17
2019-05-21T07:01:44.865Z,44.93
2019-05-21T07:04:15.312Z,44.33
2019-05-21T07:06:45.783Z,42.80
2019-05-21T07:09:16.492Z,42.53
2019-05-21T07:11:46.891Z,40.43
2019-05-21T07:14:17.331Z,40.53
2019-05-21T07:16:47.727Z,42.90
2019-05-21T07:19:18.166Z,42.50
2019-05-21T07:21:48.615Z,43.93
2019-05-21T07:24:19.053Z,43.03
2019-05-21T07:26:49.577Z,41.10
2019-05-21T07:29:19.978Z,43.23
2019-05-21T07:31:50.426Z,44.47
2019-05-21T07:34:20.834Z,41.23
2019-05-21T07:36:51.289Z,42.27
2019-05-21T07:39:21.697Z,42.40
2019-05-21T07:41:52.147Z,40.77
2019-05-21T07:44:22.542Z,41.70
2019-05-21T07:46:53.073Z,40.83
2019-05-21T07:49:23.820Z,43.90
2019-05-21T07:51:54.260Z,42.17
2019-05-21T07:54:27.936Z,41.63
2019-05-21T07:56:57.961Z,40.03
2019-05-21T07:59:28.361Z,38.30
2019-05-21T08:01:58.818Z,38.20
2019-05-21T08:04:29.225Z,40.53
2019-05-21T08:06:59.698Z,40.50
2019-05-21T08:09:30.181Z,37.83
2019-05-21T08:12:00.622Z,40.57
2019-05-21T08:14:31.027Z,36.53
2019-05-21T08:17:01.486Z,37.97
2019-05-21T08:19:32.042Z,35.90
2019-05-21T08:22:02.580Z,36.50
2019-05-21T08:24:33.565Z,35.53
2019-05-21T08:27:04.084Z,34.50
2019-05-21T08:29:34.743Z,36.00
2019-05-21T08:32:05.289Z,34.93
2019-05-21T08:34:35.690Z,35.43
2019-05-21T08:37:06.418Z,33.80
2019-05-21T08:39:36.932Z,33.57
2019-05-21T08:42:07.513Z,32.47
2019-05-21T08:44:37.904Z,32.57
2019-05-21T08:47:08.367Z,30.90
2019-05-21T08:49:38.763Z,28.40
2019-05-21T08:52:09.271Z,28.33
2019-05-21T08:54:50.181Z,28.80
2019-05-21T08:57:21.164Z,26.77
2019-05-21T08:59:51.566Z,23.17
2019-05-21T09:02:23.840Z,22.20
2019-05-21T09:04:54.246Z,26.53
2019-05-21T09:07:24.756Z,22.50
2019-05-21T09:09:55.233Z,21.33
2019-05-21T09:12:25.893Z,19.27
2019-05-21T09:14:56.287Z,20.17
2019-05-21T09:17:26.738Z,19.17
2019-05-21T09:19:57.142Z,20.00
2019-05-21T09:22:27.595Z,19.10
2019-05-21T09:24:58.005Z,20.77
2019-05-21T09:27:28.447Z,19.92
2019-05-21T09:29:58.851Z,14.38
2019-05-21T09:32:29.375Z,14.55
2019-05-21T09:34:59.777Z,15.68
2019-05-21T09:37:30.282Z,15.10
2019-05-21T09:40:00.865Z,13.53
2019-05-21T09:42:31.327Z,13.83
2019-05-21T09:45:01.738Z,13.65
2019-05-21T09:47:32.245Z,14.75
2019-05-21T09:50:03.495Z,13.53
2019-05-21T09:52:34.406Z,13.95
2019-05-21T09:55:06.148Z,14.68
2019-05-21T09:57:53.623Z,13.83
2019-05-21T10:00:35.062Z,14.33
2019-05-21T10:03:07.215Z,13.30
2019-05-21T10:05:37.616Z,12.58
2019-05-21T10:08:08.068Z,10.95
2019-05-21T10:10:38.468Z,12.17
2019-05-21T10:13:08.979Z,10.70
2019-05-21T10:15:39.437Z,11.12
2019-05-21T10:18:09.944Z,12.45
2019-05-21T10:20:40.459Z,11.05
2019-05-21T10:23:10.924Z,10.80
2019-05-21T10:25:41.448Z,12.53
2019-05-21T10:28:11.878Z,10.95
2019-05-21T10:30:42.569Z,11.05
2019-05-21T10:33:13.046Z,10.20
2019-05-21T10:35:43.575Z,11.80
2019-05-21T10:38:14.048Z,9.90
2019-05-21T10:40:45.847Z,11.00
2019-05-21T10:43:16.506Z,10.72
2019-05-21T10:45:47.026Z,9.38
2019-05-21T10:48:17.466Z,8.65
2019-05-21T10:50:47.871Z,9.30
2019-05-21T10:53:19.655Z,9.60
2019-05-21T10:55:50.574Z,9.18
2019-05-21T10:58:21.119Z,9.58
2019-05-21T11:00:53.318Z,9.53
2019-05-21T11:03:25.561Z,9.90
2019-05-21T11:06:09.571Z,11.53
2019-05-21T11:08:29.247Z,10.38
2019-05-21T11:10:59.695Z,10.23
2019-05-21T11:13:30.122Z,10.13
2019-05-21T11:16:00.625Z,10.23
2019-05-21T11:18:31.022Z,9.38
2019-05-21T11:21:01.526Z,9.45
2019-05-21T11:23:31.952Z,10.25
2019-05-21T11:26:02.399Z,9.45
2019-05-21T11:28:32.902Z,7.95
2019-05-21T11:31:03.334Z,9.83
2019-05-21T11:33:34.186Z,10.50
2019-05-21T11:36:04.773Z,9.08
2019-05-21T11:38:39.887Z,6.40
2019-05-21T11:41:07.311Z,6.15
2019-05-21T11:43:37.882Z,6.85
2019-05-21T11:46:08.328Z,6.05
2019-05-21T11:48:38.764Z,6.85
2019-05-21T11:51:12.510Z,6.87
2019-05-21T11:53:41.353Z,7.28
2019-05-21T11:56:11.789Z,7.50
2019-05-21T11:58:42.194Z,6.65
2019-05-21T12:01:12.720Z,6.37
2019-05-21T12:03:44.084Z,4.40
2019-05-21T12:06:14.511Z,4.20
2019-05-21T12:08:56.433Z,6.35
2019-05-21T12:11:17.415Z,6.65
2019-05-21T12:13:47.895Z,6.90
2019-05-21T12:16:18.338Z,6.50
2019-05-21T12:18:48.728Z,7.20
2019-05-21T12:21:19.229Z,6.50
2019-05-21T12:23:49.616Z,6.60
2019-05-21T12:26:20.045Z,5.85
2019-05-21T12:28:51.514Z,6.08
2019-05-21T12:31:22.027Z,5.50
2019-05-21T12:33:52.463Z,5.65
2019-05-21T12:36:22.946Z,6.60
2019-05-21T12:38:53.447Z,5.50
2019-05-21T12:41:23.999Z,5.78
2019-05-21T12:43:54.428Z,5.53
2019-05-21T12:46:24.855Z,5.80
2019-05-21T12:48:55.279Z,4.90
2019-05-21T12:51:26.008Z,4.75
2019-05-21T12:53:56.782Z,6.00
2019-05-21T12:56:27.357Z,6.37
2019-05-21T12:59:00.661Z,5.08
2019-05-21T13:01:29.962Z,6.17
2019-05-21T13:04:00.398Z,6.00
2019-05-21T13:06:30.792Z,5.50
2019-05-21T13:09:07.868Z,5.37
2019-05-21T13:11:36.803Z,5.33
2019-05-21T13:14:07.404Z,4.92
2019-05-21T13:16:39.624Z,4.55
2019-05-21T13:19:11.275Z,4.90
2019-05-21T13:21:43.346Z,4.15
2019-05-21T13:24:13.894Z,5.40
2019-05-21T13:26:46.392Z,4.92
2019-05-21T13:29:16.831Z,5.35
2019-05-21T13:31:48.708Z,4.85
2019-05-21T13:34:20.780Z,4.87
2019-05-21T13:36:53.795Z,5.45
2019-05-21T13:39:25.754Z,5.35
2019-05-21T13:41:57.914Z,4.60
2019-05-21T13:44:28.390Z,4.00
2019-05-21T13:47:00.747Z,4.33
2019-05-21T13:49:33.053Z,4.25
2019-05-21T13:52:03.560Z,4.67
2019-05-21T13:54:34.297Z,3.77
2019-05-21T13:57:04.813Z,3.83
2019-05-21T13:59:35.416Z,3.65
2019-05-21T14:02:08.144Z,4.05
2019-05-21T14:04:38.603Z,4.15
2019-05-21T14:07:09.113Z,4.67
2019-05-21T14:09:39.499Z,4.50
2019-05-21T14:12:10.019Z,4.17
2019-05-21T14:14:40.452Z,4.23
2019-05-21T14:17:11.121Z,4.95
2019-05-21T14:19:41.701Z,4.05
2019-05-21T14:22:12.136Z,4.53
2019-05-21T14:24:42.534Z,4.53
2019-05-21T14:27:13.043Z,3.42
2019-05-21T14:29:43.641Z,3.57
2019-05-21T14:32:14.360Z,4.20
2019-05-21T14:35:00.324Z,4.03
2019-05-21T14:37:17.924Z,3.63
2019-05-21T14:39:48.370Z,3.87
2019-05-21T14:42:18.768Z,3.45
2019-05-21T14:44:49.200Z,3.75
2019-05-21T14:47:19.656Z,3.62
2019-05-21T14:49:50.084Z,2.83
2019-05-21T14:52:20.550Z,3.00
2019-05-21T14:54:50.985Z,3.35
2019-05-21T14:57:21.382Z,2.70
2019-05-21T14:59:51.811Z,3.00
2019-05-21T15:02:22.203Z,3.00
2019-05-21T15:04:52.799Z,2.55
2019-05-21T15:07:23.298Z,2.77
2019-05-21T15:09:53.893Z,2.85
2019-05-21T15:12:24.288Z,3.12
2019-05-21T15:14:54.715Z,3.02
2019-05-21T15:17:25.280Z,2.62
2019-05-21T15:19:57.609Z,3.40
2019-05-21T15:22:28.020Z,3.40
2019-05-21T15:24:58.522Z,3.33
2019-05-21T15:27:28.926Z,3.20
2019-05-21T15:29:59.581Z,3.73
2019-05-21T15:32:30.872Z,3.57
2019-05-21T15:35:01.381Z,4.27
2019-05-21T15:37:31.840Z,4.93
2019-05-21T15:40:05.476Z,4.40
2019-05-21T15:42:35.937Z,4.03
2019-05-21T15:45:08.313Z,4.43
2019-05-21T15:47:38.709Z,4.77
2019-05-21T15:50:09.671Z,4.80
2019-05-21T15:52:40.061Z,4.40
2019-05-21T15:55:10.713Z,5.43
2019-05-21T15:57:41.197Z,5.20
2019-05-21T16:00:15.756Z,5.77
2019-05-21T16:02:46.154Z,5.93
2019-05-21T16:05:16.740Z,6.40
2019-05-21T16:07:47.270Z,5.90
2019-05-21T16:10:17.914Z,6.93
2019-05-21T16:12:48.304Z,8.23
2019-05-21T16:15:18.809Z,7.93
2019-05-21T16:17:49.268Z,7.57
2019-05-21T16:20:20.114Z,8.03
2019-05-21T16:22:50.610Z,9.47
2019-05-21T16:25:22.099Z,8.43
2019-05-21T16:27:53.480Z,8.67
2019-05-21T16:30:25.250Z,9.20
2019-05-21T16:32:55.879Z,9.13
2019-05-21T16:35:26.508Z,15.80
2019-05-21T16:37:56.905Z,21.40
2019-05-21T16:40:28.374Z,15.97
2019-05-21T16:42:58.923Z,14.73
2019-05-21T16:45:29.382Z,16.77
2019-05-21T16:47:59.976Z,14.93
2019-05-21T16:50:30.530Z,12.67
2019-05-21T16:53:00.927Z,12.70
2019-05-21T16:55:33.521Z,16.53
2019-05-21T16:58:03.978Z,6.10
2019-05-21T17:00:34.488Z,4.93
2019-05-21T17:03:04.962Z,6.77
2019-05-21T17:05:35.444Z,5.73
2019-05-21T17:08:05.908Z,7.33
2019-05-21T17:10:36.358Z,8.93
2019-05-21T17:13:06.826Z,7.30
2019-05-21T17:15:37.498Z,6.13
2019-05-21T17:18:07.902Z,7.57
2019-05-21T17:20:38.476Z,7.47
2019-05-21T17:23:08.868Z,7.53
2019-05-21T17:25:39.391Z,8.57
2019-05-21T17:28:09.874Z,10.83
2019-05-21T17:30:40.462Z,10.43
2019-05-21T17:33:11.006Z,10.50
2019-05-21T17:35:41.529Z,9.97
2019-05-21T17:38:12.070Z,10.00
2019-05-21T17:40:42.785Z,9.53
2019-05-21T17:43:14.947Z,10.57
2019-05-21T17:45:46.029Z,10.00
2019-05-21T17:48:16.425Z,10.13
2019-05-21T17:50:47.482Z,11.20
2019-05-21T17:53:20.363Z,11.37
2019-05-21T17:55:51.437Z,10.60
2019-05-21T17:58:21.925Z,12.17
2019-05-21T18:00:54.441Z,14.07
2019-05-21T18:03:26.219Z,14.27
2019-05-21T18:05:58.630Z,15.17
2019-05-21T18:08:32.481Z,17.27
2019-05-21T18:11:03.051Z,16.57
2019-05-21T18:13:34.139Z,15.07
2019-05-21T18:16:06.238Z,14.43
2019-05-21T18:18:36.986Z,15.73
2019-05-21T18:21:08.091Z,14.90
2019-05-21T18:23:39.115Z,12.63
2019-05-21T18:26:09.509Z,15.00
2019-05-21T18:28:40.368Z,15.47
2019-05-21T18:31:11.963Z,15.50
2019-05-21T18:33:42.565Z,14.57
2019-05-21T18:36:13.301Z,15.57
2019-05-21T18:38:43.739Z,14.57
2019-05-21T18:41:15.284Z,15.23
2019-05-21T18:43:45.784Z,17.47
2019-05-21T18:46:17.264Z,18.13
2019-05-21T18:48:47.702Z,19.97
2019-05-21T18:51:18.108Z,21.33
2019-05-21T18:53:48.930Z,20.60
2019-05-21T18:56:19.455Z,22.33
2019-05-21T18:58:50.084Z,24.47
2019-05-21T19:01:20.683Z,22.73
2019-05-21T19:03:51.343Z,22.67
2019-05-21T19:06:21.811Z,24.90
2019-05-21T19:08:53.365Z,23.30
2019-05-21T19:11:23.823Z,24.83
2019-05-21T19:13:54.598Z,24.17
2019-05-21T19:16:25.215Z,22.97
2019-05-21T19:18:55.656Z,25.40
2019-05-21T19:21:26.123Z,23.47
2019-05-21T19:23:56.569Z,22.07
2019-05-21T19:26:27.231Z,24.70
2019-05-21T19:28:57.666Z,24.53
2019-05-21T19:31:28.310Z,26.13
2019-05-21T19:34:00.611Z,23.17
2019-05-21T19:36:33.413Z,34.13
2019-05-21T19:39:05.129Z,32.03
2019-05-21T19:41:37.192Z,29.63
2019-05-21T19:44:14.747Z,28.63
2019-05-21T19:46:45.358Z,29.20
2019-05-21T19:49:17.177Z,28.63
2019-05-21T19:51:55.489Z,29.67
2019-05-21T19:54:30.549Z,29.10
2019-05-21T19:57:02.235Z,46.77
2019-05-21T19:59:39.123Z,44.03
2019-05-21T20:02:10.307Z,29.70
2019-05-21T20:04:47.562Z,31.27
2019-05-21T20:07:19.858Z,29.90
2019-05-21T20:09:54.774Z,27.37
2019-05-21T20:12:32.019Z,26.20
2019-05-21T20:15:02.629Z,27.77
2019-05-21T20:17:36.264Z,27.67
2019-05-21T20:20:08.438Z,29.10
2019-05-21T20:22:39.955Z,27.07
2019-05-21T20:25:14.772Z,27.17
2019-05-21T20:27:50.879Z,27.13
2019-05-21T20:30:23.287Z,25.77
2019-05-21T20:32:54.583Z,27.90
2019-05-21T20:35:27.491Z,25.90
2019-05-21T20:38:03.064Z,24.60
2019-05-21T20:40:33.661Z,23.80
2019-05-21T20:43:05.773Z,23.63
2019-05-21T20:45:40.490Z,25.63
2019-05-21T20:48:14.342Z,26.30
2019-05-21T20:50:46.233Z,25.13
2019-05-21T20:53:18.869Z,23.37
2019-05-21T20:55:49.870Z,22.67
2019-05-21T20:58:20.459Z,20.70
2019-05-21T21:01:04.628Z,20.73
2019-05-21T21:03:35.782Z,23.07
2019-05-21T21:06:06.482Z,24.73
2019-05-21T21:08:37.789Z,28.50
2019-05-21T21:11:09.210Z,30.17
2019-05-21T21:13:39.862Z,31.60
2019-05-21T21:16:11.052Z,32.27
2019-05-21T21:18:41.799Z,34.20
2019-05-21T21:21:12.485Z,29.87
2019-05-21T21:23:43.721Z,29.13
2019-05-21T21:26:18.849Z,26.23
2019-05-21T21:28:49.325Z,26.27
2019-05-21T21:31:19.770Z,21.43
2019-05-21T21:33:50.469Z,18.80
2019-05-21T21:36:21.351Z,22.10
2019-05-21T21:38:51.924Z,21.70
2019-05-21T21:41:22.450Z,19.30
2019-05-21T21:43:52.858Z,21.70
2019-05-21T21:46:23.487Z,20.90
2019-05-21T21:48:58.338Z,19.60
2019-05-21T21:51:28.858Z,17.53
2019-05-21T21:53:59.321Z,19.57
2019-05-21T21:56:29.843Z,19.20
2019-05-21T21:59:00.483Z,17.80
2019-05-21T22:01:50.323Z,19.03
2019-05-21T22:04:25.613Z,17.70
2019-05-21T22:06:56.630Z,18.20
2019-05-21T22:09:29.534Z,16.57
2019-05-21T22:12:00.171Z,16.60
2019-05-21T22:14:31.249Z,17.10
2019-05-21T22:17:02.383Z,14.77
2019-05-21T22:19:33.619Z,17.87
2019-05-21T22:22:05.735Z,18.47
2019-05-21T22:24:36.279Z,18.40
2019-05-21T22:27:06.740Z,16.73
2019-05-21T22:29:37.264Z,17.97
2019-05-21T22:32:07.833Z,16.57
2019-05-21T22:34:38.345Z,14.77
2019-05-21T22:37:10.596Z,14.57
2019-05-21T22:39:42.906Z,12.50
2019-05-21T22:42:14.212Z,12.07
2019-05-21T22:44:44.897Z,15.70
2019-05-21T22:47:15.984Z,14.43
2019-05-21T22:49:46.447Z,17.97
2019-05-21T22:52:16.893Z,16.43
2019-05-21T22:54:47.282Z,17.93
2019-05-21T22:57:17.713Z,17.03
2019-05-21T22:59:48.117Z,15.67
2019-05-21T23:02:20.261Z,17.30
2019-05-21T23:04:50.934Z,15.77
2019-05-21T23:07:21.564Z,14.73
2019-05-21T23:09:52.660Z,15.27
2019-05-21T23:12:23.535Z,14.87
2019-05-21T23:14:54.006Z,14.40
2019-05-21T23:17:26.335Z,14.10
2019-05-21T23:20:15.043Z,14.67
2019-05-21T23:22:49.154Z,15.00
2019-05-21T23:25:21.378Z,15.67
2019-05-21T23:27:52.260Z,14.80
2019-05-21T23:30:22.998Z,13.23
2019-05-21T23:32:53.699Z,14.67
2019-05-21T23:35:24.365Z,13.17
2019-05-21T23:37:56.519Z,14.00
2019-05-21T23:40:27.663Z,11.77
2019-05-21T23:42:58.369Z,10.50
2019-05-21T23:45:30.545Z,11.10
2019-05-21T23:48:01.425Z,13.07
2019-05-21T23:50:31.902Z,14.13
2019-05-21T23:53:03.006Z,12.77
2019-05-21T23:55:34.000Z,13.47
2019-05-21T23:58:04.531Z,12.60
